| time (UTC) | temp C | wind direction | speed KPH | gust KPH | rain 1hr cm | rain 24hr cm | rain mn cm | humidity % | barometer mb |
| 20260507130012 | 5 | 246 | 0.0 | 0.0 | 0.00 | 0.13 | 0.00 | 92 | 1012.4 |
| 20260507124512 | 5 | 14 | 0.0 | 0.0 | 0.00 | 0.13 | 0.00 | 94 | 1012.7 |
| 20260507123003 | 4 | 203 | 0.0 | 0.0 | 0.00 | 0.13 | 0.00 | 95 | 1012.4 |
| 20260507121502 | 3 | 253 | 0.0 | 0.0 | 0.00 | 0.13 | 0.00 | 95 | 1012.4 |
| 20260507120003 | 3 | 326 | 0.0 | 0.0 | 0.00 | 0.13 | 0.00 | 96 | 1012.4 |
| 20260507114502 | 3 | 323 | 0.0 | 0.0 | 0.00 | 0.13 | 0.00 | 96 | 1012.3 |
| 20260507113001 | 2 | 298 | 0.0 | 0.0 | 0.00 | 0.13 | 0.00 | 96 | 1012.2 |
| 20260507111502 | 2 | 163 | 0.0 | 0.0 | 0.00 | 0.13 | 0.00 | 97 | 1012.0 |
| 20260507110053 | 2 | 27 | 0.0 | 0.0 | 0.00 | 0.13 | 0.00 | 96 | 1012.0 |
| 20260507104554 | -17 | 0.0 | 0.0 | 0.00 | 0.13 | 0.00 | 1011.6 | ||
| 20260507103046 | -17 | 0.0 | 0.0 | 0.00 | 0.13 | 0.00 | 1011.7 | ||
| 20260507101553 | -17 | 0.0 | 0.0 | 0.00 | 0.13 | 0.00 | 1011.6 | ||
| 20260507100049 | -17 | 0.0 | 0.0 | 0.00 | 0.13 | 0.00 | 1011.5 | ||
| 20260507094536 | -17 | 0.0 | 0.0 | 0.00 | 0.13 | 0.00 | 1011.5 | ||
| 20260507093032 | 2 | 168 | 0.0 | 0.0 | 0.00 | 0.13 | 0.00 | 96 | 1011.7 |
| 20260507091532 | 2 | 173 | 0.0 | 0.0 | 0.00 | 0.13 | 0.00 | 96 | 1012.0 |
| 20260507090050 | 2 | 173 | 0.0 | 0.0 | 0.00 | 0.13 | 0.00 | 96 | 1011.7 |
| 20260507084551 | 2 | 173 | 0.0 | 0.0 | 0.00 | 0.13 | 0.00 | 95 | 1011.6 |
| 20260507083058 | 3 | 184 | 0.0 | 0.0 | 0.00 | 0.13 | 0.00 | 96 | 1011.5 |
| 20260507081556 | 3 | 174 | 0.0 | 0.0 | 0.00 | 0.13 | 0.00 | 96 | 1011.7 |
| 20260507080030 | 3 | 169 | 0.0 | 0.0 | 0.00 | 0.18 | 0.00 | 94 | 1011.6 |
| 20260507074527 | 3 | 165 | 0.0 | 0.0 | 0.00 | 0.18 | 0.00 | 95 | 1011.4 |
| 20260507073024 | 3 | 164 | 0.0 | 0.0 | 0.00 | 0.18 | 0.00 | 95 | 1011.8 |
| 20260507071522 | 4 | 160 | 0.0 | 0.0 | 0.00 | 0.18 | 0.00 | 94 | 1011.8 |
| 20260507070024 | 5 | 179 | 0.0 | 0.0 | 0.00 | 0.58 | 0.00 | 94 | 1011.8 |
| 20260507064528 | 5 | 171 | 0.0 | 0.0 | 0.00 | 0.58 | 0.00 | 94 | 1011.8 |
| 20260507063022 | 5 | 179 | 0.0 | 0.0 | 0.00 | 0.58 | 0.00 | 92 | 1011.9 |
| 20260507061516 | 5 | 134 | 0.0 | 0.0 | 0.00 | 0.58 | 0.00 | 91 | 1012.0 |
| 20260507060058 | 5 | 134 | 0.0 | 0.0 | 0.00 | 0.91 | 0.00 | 91 | 1012.0 |
| 20260507054555 | 5 | 219 | 0.0 | 0.0 | 0.00 | 0.91 | 0.00 | 90 | 1012.2 |
| 20260507053035 | 5 | 208 | 0.0 | 0.0 | 0.00 | 0.91 | 0.00 | 90 | 1012.3 |
| 20260507051536 | 5 | 189 | 0.0 | 0.0 | 0.00 | 0.91 | 0.00 | 90 | 1012.5 |
| 20260507050020 | 5 | 188 | 0.0 | 0.0 | 0.00 | 1.12 | 0.91 | 90 | 1012.4 |
| 20260507044515 | 5 | 188 | 0.0 | 0.0 | 0.00 | 1.12 | 0.91 | 90 | 1012.7 |
| 20260507043002 | 5 | 185 | 0.0 | 0.0 | 0.00 | 1.12 | 0.91 | 89 | 1012.4 |
| 20260507041503 | 5 | 184 | 0.0 | 0.0 | 0.00 | 1.12 | 0.91 | 89 | 1012.4 |
| 20260507040100 | 5 | 189 | 0.0 | 0.0 | 0.00 | 1.22 | 0.91 | 90 | 1012.4 |
| 20260507040001 | 5 | 189 | 0.0 | 0.0 | 0.00 | 1.22 | 0.91 | 90 | 1012.5 |
| 20260507034600 | 5 | 176 | 0.0 | 0.0 | 0.00 | 1.22 | 0.91 | 89 | 1012.2 |
| 20260507033100 | 5 | 150 | 0.0 | 0.0 | 0.00 | 1.22 | 0.91 | 90 | 1012.2 |
| 20260507031558 | 5 | 165 | 0.0 | 0.0 | 0.00 | 1.22 | 0.91 | 90 | 1012.3 |
| 20260507030100 | 5 | 205 | 0.0 | 0.0 | 0.00 | 1.37 | 0.91 | 90 | 1012.3 |
| 20260507024618 | 5 | 194 | 0.0 | 0.0 | 0.00 | 1.37 | 0.91 | 90 | 1011.9 |
| 20260507023046 | 5 | 204 | 0.0 | 0.0 | 0.00 | 1.37 | 0.91 | 90 | 1012.0 |
| 20260507021545 | 5 | 221 | 0.0 | 3.2 | 0.00 | 1.37 | 0.91 | 90 | 1012.1 |
| 20260507020103 | 5 | 243 | 4.8 | 11.3 | 0.00 | 1.52 | 0.91 | 90 | 1012.3 |
| 20260507014552 | 6 | 237 | 0.0 | 9.7 | 0.00 | 1.52 | 0.91 | 89 | 1012.3 |
| 20260507013046 | 6 | 248 | 3.2 | 11.3 | 0.00 | 1.52 | 0.91 | 89 | 1012.2 |
| 20260507011539 | 6 | 236 | 0.0 | 16.1 | 0.00 | 1.52 | 0.91 | 89 | 1011.9 |
| 20260507010037 | 6 | 242 | 4.8 | 29.0 | 0.00 | 1.63 | 0.91 | 90 | 1011.9 |
| 20260507004540 | 6 | 271 | 9.7 | 25.7 | 0.00 | 1.63 | 0.91 | 90 | 1011.9 |
| 20260507003014 | 6 | 243 | 6.4 | 20.9 | 0.00 | 1.63 | 0.91 | 91 | 1011.3 |
| 20260507001513 | 6 | 222 | 11.3 | 17.7 | 0.00 | 1.63 | 0.91 | 91 | 1011.1 |
| 20260507000054 | 6 | 237 | 6.4 | 17.7 | 0.00 | 1.75 | 0.91 | 91 | 1010.9 |
| 20260506234559 | 7 | 221 | 11.3 | 24.1 | 0.00 | 1.75 | 0.91 | 90 | 1010.9 |
| 20260506233032 | 7 | 233 | 1.6 | 16.1 | 0.00 | 1.75 | 0.91 | 91 | 1010.7 |
| 20260506231543 | 7 | 235 | 11.3 | 33.8 | 0.00 | 1.75 | 0.91 | 89 | 1010.5 |
| 20260506230016 | 8 | 263 | 14.5 | 32.2 | 0.00 | 2.03 | 0.91 | 85 | 1010.3 |
| 20260506224513 | 9 | 239 | 16.1 | 32.2 | 0.00 | 2.03 | 0.91 | 82 | 1009.9 |
| 20260506223012 | 10 | 254 | 14.5 | 35.4 | 0.00 | 2.03 | 0.91 | 78 | 1009.7 |
| 20260506221509 | 10 | 110 | 9.7 | 25.7 | 0.00 | 2.03 | 0.91 | 76 | 1009.3 |
| 20260506220007 | 10 | 169 | 0.0 | 3.2 | 0.00 | 2.08 | 0.91 | 85 | 1009.3 |
| 20260506214505 | 10 | 141 | 0.0 | 0.0 | 0.00 | 2.08 | 0.91 | 84 | 1009.1 |
| 20260506213002 | 10 | 93 | 0.0 | 1.6 | 0.00 | 2.08 | 0.91 | 86 | 1008.9 |
| 20260506211630 | 9 | 239 | 0.0 | 0.0 | 0.00 | 2.08 | 0.91 | 86 | 1008.8 |
| 20260506210103 | 9 | 98 | 0.0 | 0.0 | 0.00 | 2.08 | 0.91 | 86 | 1008.9 |
| 20260506204548 | 9 | 134 | 0.0 | 0.0 | 0.00 | 2.08 | 0.91 | 87 | 1008.9 |
| 20260506203045 | 8 | 274 | 0.0 | 0.0 | 0.00 | 2.08 | 0.91 | 89 | 1009.0 |
| 20260506201534 | 8 | 359 | 0.0 | 0.0 | 0.00 | 2.08 | 0.91 | 90 | 1009.0 |
| 20260506200021 | 8 | 71 | 0.0 | 0.0 | 0.00 | 2.08 | 0.91 | 92 | 1009.1 |
| 20260506194526 | 8 | 250 | 0.0 | 0.0 | 0.00 | 2.08 | 0.91 | 93 | 1009.3 |
| 20260506193019 | 7 | 316 | 0.0 | 0.0 | 0.00 | 2.08 | 0.91 | 94 | 1009.1 |
| 20260506191519 | 7 | 29 | 0.0 | 0.0 | 0.00 | 2.08 | 0.91 | 93 | 1008.9 |
| 20260506190019 | 7 | 314 | 0.0 | 0.0 | 0.00 | 2.08 | 0.91 | 93 | 1008.9 |
| 20260506184518 | 7 | 311 | 0.0 | 0.0 | 0.00 | 2.08 | 0.91 | 94 | 1008.9 |
| 20260506183028 | 7 | 297 | 0.0 | 0.0 | 0.00 | 2.08 | 0.91 | 94 | 1009.0 |
| 20260506181504 | 7 | 334 | 0.0 | 0.0 | 0.00 | 2.08 | 0.91 | 93 | 1009.0 |
| 20260506180010 | 7 | 332 | 0.0 | 0.0 | 0.00 | 2.08 | 0.91 | 92 | 1008.9 |
| 20260506174508 | 7 | 319 | 0.0 | 0.0 | 0.00 | 2.08 | 0.91 | 91 | 1008.7 |
| 20260506173002 | 7 | 191 | 0.0 | 0.0 | 0.00 | 2.08 | 0.91 | 92 | 1009.0 |
| 20260506171501 | 7 | 333 | 0.0 | 0.0 | 0.00 | 2.08 | 0.91 | 92 | 1008.5 |
| 20260506170114 | 7 | 330 | 0.0 | 0.0 | 0.00 | 2.08 | 0.91 | 92 | 1008.5 |
| 20260506164601 | 7 | 15 | 0.0 | 0.0 | 0.00 | 2.08 | 0.91 | 92 | 1008.1 |
| 20260506163110 | 7 | 271 | 0.0 | 0.0 | 0.00 | 2.08 | 0.91 | 92 | 1008.4 |
| 20260506161541 | 7 | 274 | 0.0 | 0.0 | 0.00 | 2.08 | 0.91 | 92 | 1008.3 |
| 20260506160041 | 7 | 278 | 0.0 | 0.0 | 0.00 | 2.08 | 0.91 | 93 | 1008.2 |
| 20260506154531 | 6 | 323 | 0.0 | 0.0 | 0.00 | 2.08 | 0.91 | 93 | 1008.1 |
| 20260506153025 | 7 | 319 | 0.0 | 0.0 | 0.03 | 2.08 | 0.91 | 94 | 1008.1 |
| 20260506151523 | 6 | 6 | 0.0 | 0.0 | 0.05 | 2.08 | 0.91 | 95 | 1007.8 |
| 20260506150022 | 6 | 38 | 0.0 | 0.0 | 0.05 | 2.08 | 0.91 | 95 | 1007.8 |
| 20260506144520 | 6 | 32 | 0.0 | 0.0 | 0.05 | 2.08 | 0.91 | 95 | 1007.6 |
| 20260506143028 | 6 | 25 | 0.0 | 0.0 | 0.03 | 2.06 | 0.89 | 95 | 1007.6 |
| 20260506141518 | 6 | 26 | 0.0 | 0.0 | 0.03 | 2.03 | 0.86 | 94 | 1007.3 |
| 20260506140016 | 6 | 21 | 0.0 | 0.0 | 0.05 | 2.03 | 0.86 | 95 | 1007.3 |
| 20260506134505 | 6 | 16 | 0.0 | 0.0 | 0.05 | 2.03 | 0.86 | 95 | 1007.2 |
| 20260506133005 | 6 | 86 | 0.0 | 0.0 | 0.05 | 2.01 | 0.84 | 95 | 1007.3 |
| 20260506131505 | 6 | 44 | 0.0 | 0.0 | 0.05 | 2.01 | 0.84 | 95 | 1007.1 |